X

Important NEWS



New Hub Active

Miami is our new hub! Old members can request transfer via hr@dlxairways.net

Thank you very much and have nice flight.


Deluxe Airways.

X

Tours



Hello again, we created one nice test tour for all pilots to attend. also this is ment to be testing of our tour system

Available Tours

If you find some issues please inform us.

Thank you very much and have nice flight.


Deluxe Airways.

 METAR AND TAF INFORMATION
ArrayMETAR FOR LPFR
45961970 5 LPFR 191000Z 29009KT 9999 FEW020 14/11 Q1020 LPFR 2019-01-19T10:00:00Z 37.02 -7.97 14.0 11.0 290 9 6.21 30.11811 VFR METAR 4.0 LPFR 190930Z 29011KT 9999 FEW030 13/11 Q1020 LPFR 2019-01-19T09:30:00Z 37.02 -7.97 13.0 11.0 290 11 6.21 30.11811 VFR METAR 4.0 LPFR 190900Z 28010KT CAVOK 13/11 Q1019 LPFR 2019-01-19T09:00:00Z 37.02 -7.97 13.0 11.0 280 10 6.21 30.088583 VFR METAR 4.0 LPFR 190830Z 29011KT 9999 FEW030 12/11 Q1019 LPFR 2019-01-19T08:30:00Z 37.02 -7.97 12.0 11.0 290 11 6.21 30.088583 VFR METAR 4.0

 AIRPORT MAP

 RUNWAY INFORMATION
Runway 10 Runway length 8169 ft Runway width 148 ft
Runway elevation 24 ft Runway displaced threshold 148 ft Runway heading 100
Runway 28 Runway length 8169 ft Runway width 148 ft
Runway elevation 18 ft Runway displaced threshold 148 ft Runway heading 280

 AIRPORT FREQUENCIES
Type APP Name APP Frequency 119.4 MHZ
Type ATIS Name ATIS Frequency 124.2 MHZ
Type GND Name GND Frequency 118.575 MHZ
Type TWR Name TWR Frequency 118.2 MHZ

 AIRPORT NEAR NAVIGATION AIDS
Type NDB Name Faro Frequency 332 KHZ
Type VOR-DME Name Faro Frequency 112800 KHZ



Powered by Virtual Airlines Manager [v2.6.2]

Template code change by DeluxeAir